createdAt,value
2022-09-06T00:03:51.377Z,101528.29
2022-09-06T00:08:53.265Z,101533.38
2022-09-06T00:13:55.146Z,101531.65
2022-09-06T00:18:57.332Z,101529.52
2022-09-06T00:23:59.405Z,101532.54
2022-09-06T00:29:01.589Z,101535.36
2022-09-06T00:34:03.567Z,101530.73
2022-09-06T00:39:05.320Z,101531.19
2022-09-06T00:44:07.223Z,101530.38
2022-09-06T00:49:15.751Z,101533.45
2022-09-06T00:54:18.448Z,101529.55
2022-09-06T00:59:20.529Z,101529.17
2022-09-06T01:04:23.533Z,101529.00
2022-09-06T01:09:46.197Z,101525.90
2022-09-06T01:15:06.921Z,101525.39
2022-09-06T01:20:18.111Z,101525.69
2022-09-06T01:25:36.680Z,101523.08
2022-09-06T01:30:47.711Z,101524.82
2022-09-06T01:36:00.607Z,101525.34
2022-09-06T01:41:02.322Z,101525.10
2022-09-06T01:46:13.624Z,101520.48
2022-09-06T01:51:55.898Z,101520.35
2022-09-06T01:57:06.690Z,101527.32
2022-09-06T02:02:33.960Z,101521.84
2022-09-06T02:07:37.968Z,101518.34
2022-09-06T02:12:43.243Z,101515.95
2022-09-06T02:17:57.917Z,101519.90
2022-09-06T02:23:05.940Z,101526.98
2022-09-06T02:28:09.701Z,101522.27
2022-09-06T02:33:20.549Z,101521.95
2022-09-06T02:38:25.055Z,101521.93
2022-09-06T02:43:26.962Z,101522.14
2022-09-06T02:48:28.782Z,101524.02
2022-09-06T02:53:33.379Z,101525.98
2022-09-06T02:58:35.462Z,101519.27
2022-09-06T03:03:37.234Z,101516.79
2022-09-06T03:08:39.112Z,101519.81
2022-09-06T03:13:40.885Z,101513.54
2022-09-06T03:18:43.068Z,101512.70
2022-09-06T03:23:45.562Z,101512.23
2022-09-06T03:28:47.744Z,101512.61
2022-09-06T03:33:50.031Z,101509.63
2022-09-06T03:38:53.749Z,101510.40
2022-09-06T03:43:55.628Z,101505.01
2022-09-06T03:48:58.834Z,101508.71
2022-09-06T03:54:00.711Z,101510.11
2022-09-06T03:59:02.588Z,101510.52
2022-09-06T04:04:04.465Z,101509.65
2022-09-06T04:09:06.238Z,101510.91
2022-09-06T04:14:08.015Z,101512.69
2022-09-06T04:19:09.891Z,101514.77
2022-09-06T04:24:12.075Z,101512.52
2022-09-06T04:29:14.052Z,101510.92
2022-09-06T04:34:16.135Z,101506.05
2022-09-06T04:39:17.910Z,101505.21
2022-09-06T04:44:19.785Z,101508.39
2022-09-06T04:49:23.300Z,101503.39
2022-09-06T04:54:25.897Z,101510.73
2022-09-06T04:59:27.672Z,101513.14
2022-09-06T05:04:29.453Z,101516.11
2022-09-06T05:09:32.753Z,101513.45
2022-09-06T05:14:34.835Z,101513.64
2022-09-06T05:19:36.815Z,101515.45
2022-09-06T05:24:38.690Z,101515.59
2022-09-06T05:29:40.568Z,101510.15
2022-09-06T05:34:42.649Z,101512.27
2022-09-06T05:39:44.407Z,101509.81
2022-09-06T05:44:46.300Z,101516.03
2022-09-06T05:49:48.425Z,101518.02
2022-09-06T05:54:50.052Z,101516.07
2022-09-06T05:59:53.159Z,101520.56
2022-09-06T06:04:55.244Z,101521.55
2022-09-06T06:09:57.119Z,101525.77
2022-09-06T06:14:58.994Z,101525.72
2022-09-06T06:20:00.870Z,101525.79
2022-09-06T06:25:03.875Z,101527.38
2022-09-06T06:30:08.456Z,101523.39
2022-09-06T06:35:11.420Z,101527.38
2022-09-06T06:40:13.845Z,101530.34
2022-09-06T06:45:15.889Z,101533.26
2022-09-06T06:50:18.070Z,101529.36
2022-09-06T06:55:19.947Z,101531.95
2022-09-06T07:00:25.172Z,101531.48
2022-09-06T07:10:51.589Z,101534.34
2022-09-06T07:16:13.739Z,101532.89
2022-09-06T07:26:40.302Z,101531.94
2022-09-06T07:37:05.791Z,101536.44
2022-09-06T07:42:08.329Z,101530.05
2022-09-06T07:57:53.849Z,101526.61
2022-09-06T08:02:55.727Z,101523.50
2022-09-06T08:13:19.754Z,101518.08
2022-09-06T08:18:21.635Z,101510.05
2022-09-06T08:23:23.569Z,101509.55
2022-09-06T08:28:28.771Z,101507.79
2022-09-06T08:33:31.054Z,101500.04
2022-09-06T08:38:33.849Z,101497.98
2022-09-06T08:43:37.468Z,101497.55
2022-09-06T08:48:39.669Z,101495.17
2022-09-06T08:53:47.762Z,101486.87
2022-09-06T08:59:02.042Z,101482.20
2022-09-06T09:04:06.977Z,101478.02
2022-09-06T09:09:14.618Z,101473.83
2022-09-06T09:14:30.862Z,101466.67
2022-09-06T09:19:36.379Z,101466.23
2022-09-06T09:24:38.867Z,101451.40
2022-09-06T09:35:30.448Z,101443.02
2022-09-06T09:40:38.771Z,101438.83
2022-09-06T09:45:41.262Z,101439.38
2022-09-06T09:50:43.244Z,101429.20
2022-09-06T09:55:46.758Z,101426.42
2022-09-06T10:01:08.543Z,101412.71
2022-09-06T10:11:48.608Z,101400.00
2022-09-06T10:16:52.018Z,101389.08
2022-09-06T10:22:03.625Z,101384.05
2022-09-06T10:27:06.322Z,101381.67
2022-09-06T10:32:32.472Z,101378.85
2022-09-06T10:38:15.302Z,101376.88
2022-09-06T10:43:19.861Z,101370.69
2022-09-06T10:48:29.576Z,101369.10
2022-09-06T10:53:47.867Z,101369.59
2022-09-06T11:10:04.866Z,101360.13
2022-09-06T11:15:11.899Z,101356.08
2022-09-06T11:20:22.556Z,101348.20
2022-09-06T11:25:48.909Z,101341.98
2022-09-06T11:30:56.607Z,101336.97
2022-09-06T11:36:26.033Z,101330.11
2022-09-06T11:41:34.568Z,101323.48
2022-09-06T11:46:41.132Z,101317.69
2022-09-06T11:51:45.083Z,101309.25
2022-09-06T11:56:47.059Z,101304.55
2022-09-06T12:01:54.979Z,101294.36
2022-09-06T12:07:13.139Z,101290.20
2022-09-06T12:12:39.312Z,101286.95
2022-09-06T12:17:47.712Z,101275.48
2022-09-06T12:22:49.490Z,101278.17
2022-09-06T12:28:01.089Z,101273.02
2022-09-06T12:33:33.286Z,101264.96
2022-09-06T12:38:35.052Z,101266.13
2022-09-06T12:43:39.084Z,101258.45
2022-09-06T12:48:44.335Z,101253.88
2022-09-06T12:53:54.509Z,101250.66
2022-09-06T12:59:14.006Z,101244.91
2022-09-06T13:04:33.587Z,101239.79
2022-09-06T13:09:38.299Z,101224.28
2022-09-06T13:14:40.413Z,101222.23
2022-09-06T13:19:42.326Z,101220.38
2022-09-06T13:24:47.624Z,101220.78
2022-09-06T13:29:58.644Z,101217.10
2022-09-06T13:35:01.232Z,101213.66
2022-09-06T13:40:23.281Z,101219.17
2022-09-06T13:45:28.783Z,101211.67
2022-09-06T13:50:32.360Z,101213.24
2022-09-06T13:55:34.956Z,101205.78
2022-09-06T14:00:39.087Z,101201.27
2022-09-06T14:05:41.678Z,101208.02
2022-09-06T14:10:47.591Z,101205.70
2022-09-06T14:15:50.397Z,101197.05
2022-09-06T14:20:58.879Z,101195.23
2022-09-06T14:26:06.077Z,101193.06
2022-09-06T14:31:13.088Z,101187.30
2022-09-06T14:36:18.404Z,101185.10
2022-09-06T14:41:24.758Z,101177.42
2022-09-06T14:46:28.415Z,101170.86
2022-09-06T14:51:31.646Z,101169.95
2022-09-06T14:56:35.852Z,101163.71
2022-09-06T15:01:40.914Z,101157.52
2022-09-06T15:06:47.718Z,101151.32
2022-09-06T15:11:51.540Z,101145.38
2022-09-06T15:16:57.617Z,101145.84
2022-09-06T15:21:59.493Z,101138.10
2022-09-06T15:27:01.477Z,101133.19
2022-09-06T15:32:03.453Z,101128.84
2022-09-06T15:37:05.332Z,101123.73
2022-09-06T15:42:07.310Z,101118.42
2022-09-06T15:47:11.131Z,101115.21
2022-09-06T15:52:13.119Z,101112.19
2022-09-06T15:57:16.864Z,101106.58
2022-09-06T16:02:19.207Z,101102.16
2022-09-06T16:07:22.431Z,101102.84
2022-09-06T16:12:24.618Z,101101.20
2022-09-06T16:17:27.108Z,101096.77
2022-09-06T16:22:30.415Z,101092.94
2022-09-06T16:27:32.301Z,101089.04
2022-09-06T16:32:34.472Z,101085.06
2022-09-06T16:37:36.359Z,101086.21
2022-09-06T16:42:38.642Z,101081.48
2022-09-06T16:47:40.724Z,101081.80
2022-09-06T16:52:43.016Z,101076.10
2022-09-06T16:57:47.957Z,101075.52
2022-09-06T17:02:51.984Z,101081.05
2022-09-06T17:07:54.166Z,101084.96
2022-09-06T17:12:57.515Z,101083.52
2022-09-06T17:18:01.397Z,101085.56
2022-09-06T17:23:04.011Z,101081.67
2022-09-06T17:28:06.086Z,101086.55
2022-09-06T17:33:09.091Z,101088.07
2022-09-06T17:38:12.553Z,101092.89
2022-09-06T17:43:15.770Z,101093.93
2022-09-06T17:48:20.450Z,101099.77
2022-09-06T17:53:26.434Z,101099.16
2022-09-06T17:58:29.956Z,101096.36
2022-09-06T18:03:33.222Z,101096.80
2022-09-06T18:08:43.710Z,101103.79
2022-09-06T18:13:57.755Z,101101.27
2022-09-06T18:19:05.553Z,101108.20
2022-09-06T18:24:11.490Z,101109.02
2022-09-06T18:29:19.065Z,101103.79
2022-09-06T18:34:24.017Z,101105.51
2022-09-06T18:39:28.610Z,101108.48
2022-09-06T18:44:33.652Z,101114.38
2022-09-06T18:49:44.304Z,101120.24
2022-09-06T18:54:50.481Z,101116.10
2022-09-06T19:00:01.123Z,101123.61
2022-09-06T19:05:06.964Z,101121.63
2022-09-06T19:10:16.071Z,101123.98
2022-09-06T19:15:28.152Z,101122.45
2022-09-06T19:20:36.946Z,101123.23
2022-09-06T19:25:42.192Z,101126.48
2022-09-06T19:30:45.220Z,101126.05
2022-09-06T19:36:08.039Z,101124.98
2022-09-06T19:41:12.620Z,101124.72
2022-09-06T19:46:16.007Z,101121.33
2022-09-06T19:51:20.163Z,101119.44
2022-09-06T19:56:26.696Z,101118.97
2022-09-06T20:01:32.492Z,101121.34
2022-09-06T20:06:35.419Z,101122.60
2022-09-06T20:11:39.842Z,101121.75
2022-09-06T20:16:42.854Z,101114.85
2022-09-06T20:21:45.555Z,101114.54
2022-09-06T20:26:48.142Z,101113.13
2022-09-06T20:31:50.207Z,101112.60
2022-09-06T20:36:53.032Z,101109.74
2022-09-06T20:41:55.097Z,101113.45
2022-09-06T20:46:57.966Z,101109.80
2022-09-06T20:52:00.106Z,101106.96
2022-09-06T20:57:02.365Z,101108.48
2022-09-06T21:02:05.954Z,101104.55
2022-09-06T21:07:08.991Z,101102.48
2022-09-06T21:12:11.589Z,101101.47
2022-09-06T21:17:13.560Z,101097.95
2022-09-06T21:22:17.704Z,101099.77
2022-09-06T21:27:19.782Z,101095.98
2022-09-06T21:32:21.650Z,101092.72
2022-09-06T21:37:23.525Z,101091.84
2022-09-06T21:42:28.065Z,101089.95
2022-09-06T21:47:30.966Z,101092.02
2022-09-06T21:52:32.743Z,101086.76
2022-09-06T21:57:35.034Z,101085.95
2022-09-06T22:02:36.923Z,101083.27
2022-09-06T22:07:39.291Z,101085.96
2022-09-06T22:12:42.438Z,101086.90
2022-09-06T22:17:44.686Z,101083.84
2022-09-06T22:22:46.667Z,101082.23
2022-09-06T22:27:48.541Z,101079.73
2022-09-06T22:32:50.825Z,101081.88
2022-09-06T22:37:52.703Z,101083.65
2022-09-06T22:42:54.580Z,101086.67
2022-09-06T22:47:56.566Z,101086.21
2022-09-06T22:52:58.434Z,101088.89
2022-09-06T22:58:01.337Z,101083.80
2022-09-06T23:03:03.217Z,101081.23
2022-09-06T23:08:05.702Z,101072.19
2022-09-06T23:13:07.991Z,101070.50
2022-09-06T23:18:09.866Z,101067.27
2022-09-06T23:23:12.257Z,101058.14
2022-09-06T23:28:14.645Z,101056.98
2022-09-06T23:33:16.729Z,101048.62
2022-09-06T23:38:18.704Z,101042.15
2022-09-06T23:43:20.582Z,101044.75
2022-09-06T23:48:23.078Z,101047.53
2022-09-06T23:53:25.054Z,101055.30
2022-09-06T23:58:27.346Z,101050.52
